Baia Mare, Baia Mare Airport (LRBM)

NameBaia Mare Airport
CityBaia Mare
CountryRomania
ICAOLRBM
IATABAY
Altitude184 m
CoordinatesGoogle Map
Live Air TrafficLiveATC.net
METARLRBM 131300Z 27007KT 2500 -SN BR FEW003 SCT010 BKN013 00/M01 Q1019 R09/19//95
2018-12-13 13:00:00 Wind: West (270°) 3.6 m/s - Visibility: 2500 m - Weather: Light Snow / Mist - Temperature: 0 °C - Dew point: -1 °C - Humidity: 93.1% - Pressure: 1019 hPa
Statistics

The table below shows the detailed information of all flights to/from Baia Mare, Baia Mare Airport (LRBM).